Time;durP1;ratioP1;P1;durP2;ratioP2;P2;SDS_P1;SDS_P2;PMS_P1;PMS_P2;Temp;Humidity;BMP_temperature;BMP_pressure;BME280_temperature;BME280_humidity;BME280_pressure;Samples;Min_cycle;Max_cycle;Signal;HPM_P1;HPM_P2
2021/12/08 00:01:26;;;;;;;11.32;5.45;;;;;;;4.05;87.78;99211.88;7391164;19;20383;-58
2021/12/08 00:03:55;;;;;;;13.70;5.70;;;;;;;4.05;88.10;99204.91;7388476;19;20376;-57
2021/12/08 00:06:24;;;;;;;12.75;5.28;;;;;;;4.09;87.99;99190.09;7388072;19;20029;-56
2021/12/08 00:09:06;;;;;;;12.05;5.72;;;;;;;4.01;87.96;99187.81;7388557;19;20010;-58
2021/12/08 00:14:19;;;;;;;11.30;5.53;;;;;;;4.04;88.16;99189.44;7389522;19;20026;-56
2021/12/08 00:16:48;;;;;;;13.07;6.40;;;;;;;4.00;88.28;99204.28;7389512;19;20014;-58
2021/12/08 00:19:17;;;;;;;12.50;5.75;;;;;;;3.99;88.60;99198.25;7389981;19;20018;-58
2021/12/08 00:21:46;;;;;;;16.15;6.78;;;;;;;4.02;88.80;99192.09;7390376;19;20475;-58
2021/12/08 00:24:14;;;;;;;12.43;6.60;;;;;;;4.05;88.99;99201.50;7388358;19;20023;-57
2021/12/08 00:26:43;;;;;;;10.13;6.50;;;;;;;4.04;89.06;99186.84;7389073;19;20487;-55
2021/12/08 00:29:12;;;;;;;12.80;6.90;;;;;;;4.06;89.04;99188.47;7390641;19;20475;-54
2021/12/08 00:31:46;;;;;;;18.45;7.10;;;;;;;4.07;89.38;99194.47;7388429;19;20029;-58
2021/12/08 00:34:15;;;;;;;10.98;6.38;;;;;;;4.04;89.48;99172.16;7389022;19;20409;-58
2021/12/08 00:36:47;;;;;;;10.95;5.85;;;;;;;4.10;89.95;99184.00;7389757;19;20090;-58
2021/12/08 00:39:16;;;;;;;13.18;6.85;;;;;;;4.09;89.93;99170.19;7389986;19;20014;-58
2021/12/08 00:41:46;;;;;;;16.88;6.72;;;;;;;4.05;89.67;99162.63;7389829;19;20022;-56
2021/12/08 00:44:15;;;;;;;13.55;7.65;;;;;;;4.01;89.91;99174.84;7387316;19;20017;-53
2021/12/08 00:46:46;;;;;;;13.38;7.07;;;;;;;4.01;90.38;99177.44;7386814;19;20476;-58
2021/12/08 00:49:16;;;;;;;10.93;7.25;;;;;;;4.04;90.32;99181.66;7389268;19;20014;-58
2021/12/08 00:51:46;;;;;;;9.93;7.10;;;;;;;4.08;90.57;99173.69;7389287;19;20484;-57
2021/12/08 00:54:15;;;;;;;14.13;7.85;;;;;;;4.07;90.58;99184.13;7388458;19;20017;-59
2021/12/08 00:56:43;;;;;;;10.93;7.10;;;;;;;4.04;90.76;99173.88;7387105;19;20021;-55
2021/12/08 00:59:12;;;;;;;16.27;7.65;;;;;;;4.05;90.65;99167.81;7387547;19;20494;-59
2021/12/08 01:01:42;;;;;;;13.07;7.65;;;;;;;4.04;90.54;99164.38;7389912;19;20015;-53
2021/12/08 01:04:13;;;;;;;12.70;8.25;;;;;;;4.07;90.65;99165.97;7393149;19;20107;-56
2021/12/08 01:06:42;;;;;;;11.82;7.72;;;;;;;4.08;90.94;99165.06;7393025;19;20018;-56
2021/12/08 01:09:11;;;;;;;13.43;8.30;;;;;;;4.13;91.03;99179.50;7393529;19;20019;-59
2021/12/08 01:11:41;;;;;;;12.15;8.05;;;;;;;4.14;90.80;99181.19;7395571;19;20025;-58
2021/12/08 01:14:10;;;;;;;13.30;8.05;;;;;;;4.16;90.96;99178.53;7394301;19;20018;-59
2021/12/08 01:16:39;;;;;;;14.90;8.30;;;;;;;4.18;91.26;99175.88;7392812;19;20498;-57
2021/12/08 01:19:08;;;;;;;13.32;8.07;;;;;;;4.22;91.44;99182.63;7392698;19;20078;-57
2021/12/08 01:21:40;;;;;;;12.35;8.57;;;;;;;4.21;91.33;99186.09;7396301;19;20011;-59
2021/12/08 01:24:09;;;;;;;15.45;9.27;;;;;;;4.22;91.25;99190.38;7394432;19;20018;-59
2021/12/08 01:26:38;;;;;;;13.27;8.38;;;;;;;4.22;91.57;99182.63;7395315;19;20017;-57
2021/12/08 01:29:07;;;;;;;14.80;9.75;;;;;;;4.25;91.54;99188.47;7393165;19;20021;-59
2021/12/08 01:31:41;;;;;;;16.85;9.65;;;;;;;4.27;91.64;99184.09;7393604;19;20408;-57
2021/12/08 01:34:11;;;;;;;15.32;9.35;;;;;;;4.28;91.77;99195.28;7393092;19;20474;-58
2021/12/08 01:36:43;;;;;;;12.57;8.50;;;;;;;4.31;92.03;99198.59;7392496;19;20014;-58
2021/12/08 01:39:12;;;;;;;13.10;9.18;;;;;;;4.34;92.04;99195.00;7395355;19;20052;-60
2021/12/08 01:41:41;;;;;;;14.70;9.13;;;;;;;4.40;92.22;99204.25;7395741;19;20014;-58
2021/12/08 01:47:04;;;;;;;10.98;8.63;;;;;;;4.44;92.21;99204.09;7389330;19;20019;-60
2021/12/08 01:49:33;;;;;;;10.98;8.15;;;;;;;4.49;92.41;99202.09;7394676;19;20011;-60
2021/12/08 01:52:05;;;;;;;12.18;8.77;;;;;;;4.54;92.35;99208.84;7395212;19;20066;-60
2021/12/08 01:54:34;;;;;;;11.95;7.72;;;;;;;4.54;92.21;99203.66;7391580;19;20018;-59
2021/12/08 01:57:02;;;;;;;11.52;8.30;;;;;;;4.57;92.31;99208.69;7392236;19;20020;-58
2021/12/08 01:59:31;;;;;;;13.07;8.15;;;;;;;4.62;92.35;99201.56;7391930;19;20025;-59
2021/12/08 02:02:00;;;;;;;11.45;8.43;;;;;;;4.67;92.61;99209.94;7392221;19;20030;-60
2021/12/08 02:04:29;;;;;;;9.82;7.40;;;;;;;4.70;92.52;99202.06;7392127;19;20014;-55
2021/12/08 02:07:00;;;;;;;12.13;7.70;;;;;;;4.75;92.66;99196.63;7391280;19;20030;-56
2021/12/08 02:09:31;;;;;;;11.20;7.70;;;;;;;4.79;92.55;99193.81;7391422;19;20011;-55
2021/12/08 02:12:00;;;;;;;9.32;7.72;;;;;;;4.80;92.42;99200.72;7391987;19;20074;-58
2021/12/08 02:14:29;;;;;;;11.38;7.80;;;;;;;4.84;92.57;99201.38;7392837;19;20018;-60
2021/12/08 02:16:58;;;;;;;9.80;7.65;;;;;;;4.87;92.62;99196.06;7390950;19;20014;-57
2021/12/08 02:19:27;;;;;;;10.75;7.70;;;;;;;4.89;92.70;99202.03;7393412;19;20490;-58
2021/12/08 02:21:58;;;;;;;11.93;7.70;;;;;;;4.94;92.95;99192.28;7393777;19;20023;-57
2021/12/08 02:24:27;;;;;;;10.45;7.55;;;;;;;4.97;92.99;99191.28;7392257;19;20020;-60
2021/12/08 02:26:57;;;;;;;10.13;7.40;;;;;;;5.02;93.29;99210.06;7392478;19;20022;-59
2021/12/08 02:29:39;;;;;;;11.52;7.43;;;;;;;5.07;93.17;99212.44;7393256;19;20023;-59
2021/12/08 02:32:25;;;;;;;11.05;7.70;;;;;;;5.09;93.48;99208.03;7391450;19;20014;-58
2021/12/08 02:48:35;;;;;;;11.07;7.43;;;;;;;5.25;93.69;99234.09;7391933;19;20014;-58
2021/12/08 02:51:05;;;;;;;12.48;7.63;;;;;;;5.25;93.78;99234.09;7392414;19;20018;-58
2021/12/08 02:53:36;;;;;;;10.30;6.75;;;;;;;5.28;93.94;99241.75;7389052;19;20017;-58
2021/12/08 02:56:05;;;;;;;9.48;6.78;;;;;;;5.32;94.12;99235.50;7387904;19;20018;-56
2021/12/08 02:58:34;;;;;;;9.65;6.47;;;;;;;5.36;94.42;99235.28;7391995;19;20041;-56
2021/12/08 03:01:07;;;;;;;7.97;5.95;;;;;;;5.40;94.38;99230.75;7391502;19;20356;-58
2021/12/08 03:03:37;;;;;;;10.00;6.38;;;;;;;5.42;94.44;99230.69;7390832;19;20025;-54
2021/12/08 03:06:06;;;;;;;12.10;7.07;;;;;;;5.48;94.52;99241.63;7388217;19;20030;-55
2021/12/08 03:08:37;;;;;;;11.98;7.30;;;;;;;5.51;94.55;99243.22;7390168;19;20031;-55
2021/12/08 03:11:07;;;;;;;11.68;7.20;;;;;;;5.51;94.43;99245.81;7389248;19;20018;-55
2021/12/08 03:13:40;;;;;;;10.60;6.78;;;;;;;5.51;94.36;99238.84;7389155;19;20497;-52
2021/12/08 03:16:10;;;;;;;10.57;6.65;;;;;;;5.52;94.30;99244.91;7389838;19;20650;-52
2021/12/08 03:18:40;;;;;;;12.55;6.63;;;;;;;5.50;94.16;99247.59;7390732;19;20073;-55
2021/12/08 03:21:11;;;;;;;11.15;6.88;;;;;;;5.51;94.33;99244.06;7390226;19;20066;-57
2021/12/08 03:23:53;;;;;;;10.65;6.93;;;;;;;5.52;94.27;99231.94;7390209;19;20440;-59
2021/12/08 03:26:28;;;;;;;10.73;6.80;;;;;;;5.50;94.41;99232.00;7387029;19;20019;-58
2021/12/08 03:29:04;;;;;;;11.13;6.85;;;;;;;5.51;94.40;99233.66;7390791;19;20026;-54
2021/12/08 03:31:40;;;;;;;10.35;6.95;;;;;;;5.54;94.30;99236.13;7388737;19;20025;-54
2021/12/08 03:34:09;;;;;;;12.02;6.90;;;;;;;5.55;94.21;99231.78;7389751;19;20397;-57
2021/12/08 03:36:38;;;;;;;9.52;6.25;;;;;;;5.59;94.34;99237.66;7387122;19;20014;-58
2021/12/08 03:39:09;;;;;;;13.23;7.22;;;;;;;5.60;94.48;99249.72;7390205;19;20466;-57
2021/12/08 03:41:38;;;;;;;9.77;6.30;;;;;;;5.59;94.24;99248.91;7390462;19;20028;-58
2021/12/08 03:44:08;;;;;;;11.35;6.28;;;;;;;5.60;94.28;99247.13;7388638;19;20010;-54
2021/12/08 03:46:41;;;;;;;8.75;6.10;;;;;;;5.64;94.39;99251.25;7389583;19;20074;-56
2021/12/08 03:49:13;;;;;;;8.95;5.90;;;;;;;5.67;94.34;99248.50;7390348;19;20013;-56
2021/12/08 03:51:42;;;;;;;9.73;4.90;;;;;;;5.68;94.44;99250.19;7390089;19;20014;-56
2021/12/08 03:54:15;;;;;;;8.30;5.25;;;;;;;5.68;94.25;99245.84;7389419;19;20023;-52
2021/12/08 03:56:44;;;;;;;9.88;4.68;;;;;;;5.68;93.79;99242.41;7389324;19;20010;-51
2021/12/08 03:59:13;;;;;;;8.63;4.55;;;;;;;5.72;93.84;99243.94;7390123;19;20149;-52
2021/12/08 04:01:42;;;;;;;8.93;4.68;;;;;;;5.77;93.92;99241.94;7389893;19;20355;-51
2021/12/08 04:04:13;;;;;;;10.90;4.93;;;;;;;5.78;93.63;99242.78;7388587;19;20024;-59
2021/12/08 04:06:47;;;;;;;8.02;4.38;;;;;;;5.83;93.59;99254.66;7388895;19;20018;-57
2021/12/08 04:09:27;;;;;;;8.25;4.30;;;;;;;5.84;93.28;99260.66;7387331;19;20018;-56
2021/12/08 04:11:57;;;;;;;10.25;4.43;;;;;;;5.89;93.29;99258.69;7389050;19;20018;-52
2021/12/08 04:14:29;;;;;;;8.50;4.05;;;;;;;5.93;93.21;99261.97;7388883;19;20130;-55
2021/12/08 04:17:00;;;;;;;10.55;4.10;;;;;;;5.95;93.24;99270.53;7388612;19;20014;-57
2021/12/08 04:19:30;;;;;;;10.23;4.07;;;;;;;5.97;93.06;99268.69;7388852;19;20019;-57
2021/12/08 04:22:02;;;;;;;8.10;3.80;;;;;;;5.98;92.89;99273.84;7388765;19;20010;-56
2021/12/08 04:24:34;;;;;;;7.13;3.70;;;;;;;6.01;92.82;99278.06;7387940;19;20018;-55
2021/12/08 04:27:06;;;;;;;7.38;3.78;;;;;;;6.02;92.93;99284.94;7387594;19;20010;-54
2021/12/08 04:29:38;;;;;;;11.60;4.30;;;;;;;6.00;92.52;99292.84;7388219;19;20020;-58
2021/12/08 04:32:09;;;;;;;10.35;4.10;;;;;;;6.04;92.44;99290.91;7389581;19;20239;-58
2021/12/08 04:34:41;;;;;;;11.50;3.85;;;;;;;6.07;92.42;99298.53;7387454;19;20018;-59
2021/12/08 04:37:19;;;;;;;6.40;3.65;;;;;;;6.07;92.10;99293.34;7387454;19;20021;-57
2021/12/08 04:40:03;;;;;;;10.20;4.53;;;;;;;6.10;92.34;99298.38;7392247;19;20021;-55
2021/12/08 04:42:45;;;;;;;10.82;4.75;;;;;;;6.10;92.10;99300.97;7395537;19;20094;-55
2021/12/08 04:45:21;;;;;;;11.50;3.88;;;;;;;6.08;91.96;99300.22;7393961;19;20368;-58
2021/12/08 04:48:08;;;;;;;9.57;3.67;;;;;;;6.05;91.15;99301.22;7395117;19;20029;-56
2021/12/08 04:51:04;;;;;;;10.65;3.95;;;;;;;6.04;91.18;99296.94;7395548;19;20405;-57
2021/12/08 04:53:46;;;;;;;10.50;3.53;;;;;;;6.01;90.52;99301.47;7394858;19;20042;-57
2021/12/08 05:02:01;;;;;;;6.43;2.90;;;;;;;5.96;89.13;99290.41;7395210;19;20021;-58
2021/12/08 05:04:49;;;;;;;10.40;2.70;;;;;;;5.92;88.11;99288.88;7394311;19;20019;-58
2021/12/08 05:07:34;;;;;;;10.18;3.80;;;;;;;5.90;88.37;99281.16;7394293;19;20024;-58
2021/12/08 05:10:07;;;;;;;10.65;3.53;;;;;;;5.89;88.58;99279.50;7394144;19;20376;-60
2021/12/08 05:12:39;;;;;;;9.60;3.17;;;;;;;5.91;88.92;99287.22;7393890;19;20010;-57
2021/12/08 05:15:10;;;;;;;;;;;;;;;5.88;88.85;99290.81;7393094;19;20015;-58
2021/12/08 05:17:43;;;;;;;7.78;2.85;;;;;;;5.84;88.65;99300.50;7393976;19;19918;-57
2021/12/08 05:20:16;;;;;;;6.97;3.25;;;;;;;5.84;88.72;99310.88;7394252;19;20015;-52
2021/12/08 05:22:49;;;;;;;8.27;2.78;;;;;;;5.83;88.60;99319.63;7394107;19;20033;-56
2021/12/08 05:25:25;;;;;;;8.65;3.00;;;;;;;5.82;88.27;99328.31;7392614;19;20011;-57
2021/12/08 05:28:04;;;;;;;7.65;2.70;;;;;;;5.83;88.42;99330.03;7393038;19;20025;-53
2021/12/08 05:30:39;;;;;;;8.30;2.97;;;;;;;5.86;88.76;99339.41;7394624;19;20019;-55
2021/12/08 05:33:10;;;;;;;4.93;2.80;;;;;;;5.84;88.54;99338.66;7394702;19;20014;-52
2021/12/08 05:35:40;;;;;;;8.00;2.78;;;;;;;5.81;88.31;99334.44;7391925;19;20799;-57
2021/12/08 05:38:09;;;;;;;9.27;3.22;;;;;;;5.75;87.40;99339.94;7392949;19;20018;-58
2021/12/08 05:40:42;;;;;;;9.50;3.15;;;;;;;5.78;88.04;99345.00;7393481;19;20486;-52
2021/12/08 05:43:14;;;;;;;8.68;3.10;;;;;;;5.80;88.14;99350.97;7393039;19;20530;-54
2021/12/08 05:45:44;;;;;;;7.78;3.00;;;;;;;5.79;88.28;99346.69;7390550;19;20011;-59
2021/12/08 05:48:13;;;;;;;7.03;2.80;;;;;;;5.78;88.56;99338.97;7391310;19;20025;-55
2021/12/08 05:50:47;;;;;;;9.43;2.92;;;;;;;5.75;87.86;99349.50;7392508;19;20025;-59
2021/12/08 05:53:17;;;;;;;7.43;3.08;;;;;;;5.72;87.59;99353.09;7393126;19;20010;-58
2021/12/08 05:55:47;;;;;;;9.85;2.55;;;;;;;5.71;87.43;99360.03;7390139;19;20018;-58
2021/12/08 05:58:21;;;;;;;7.15;2.42;;;;;;;5.69;87.01;99354.06;7393192;19;20014;-57
2021/12/08 06:00:55;;;;;;;9.18;2.80;;;;;;;5.67;86.46;99352.44;7392681;19;20022;-57
2021/12/08 06:03:24;;;;;;;9.10;2.63;;;;;;;5.67;86.49;99349.84;7393170;19;20045;-60
2021/12/08 06:05:57;;;;;;;9.23;3.35;;;;;;;5.66;86.73;99349.03;7390419;19;20345;-58
2021/12/08 06:08:27;;;;;;;;;;;;;;;5.67;87.21;99357.66;7393875;19;20531;-57
2021/12/08 06:11:00;;;;;;;8.27;2.65;;;;;;;5.62;86.35;99355.28;7390667;19;20005;-58
2021/12/08 06:13:32;;;;;;;7.10;2.58;;;;;;;5.60;86.11;99359.72;7392227;19;20010;-57
2021/12/08 06:16:03;;;;;;;6.53;2.50;;;;;;;5.61;86.21;99360.56;7388814;19;20022;-59
2021/12/08 06:18:37;;;;;;;8.05;2.38;;;;;;;5.62;86.65;99370.88;7392208;19;20498;-58
2021/12/08 06:21:09;;;;;;;8.68;2.58;;;;;;;5.60;86.09;99382.25;7392319;19;20014;-59
2021/12/08 06:23:39;;;;;;;10.18;2.58;;;;;;;5.58;86.06;99368.50;7392377;19;20014;-57
2021/12/08 06:26:09;;;;;;;8.60;2.45;;;;;;;5.55;85.66;99382.47;7389638;19;20010;-57
2021/12/08 06:28:40;;;;;;;8.90;2.13;;;;;;;5.53;85.17;99381.69;7392044;19;20010;-54
2021/12/08 06:31:12;;;;;;;7.10;2.45;;;;;;;5.52;85.09;99386.03;7391799;19;20018;-57
2021/12/08 06:33:41;;;;;;;9.85;2.50;;;;;;;5.52;85.13;99380.84;7392017;19;20015;-57
2021/12/08 06:36:14;;;;;;;7.03;1.98;;;;;;;5.53;85.10;99384.28;7390919;19;20015;-58
2021/12/08 06:38:44;;;;;;;9.98;2.58;;;;;;;5.53;84.83;99392.94;7391836;19;20033;-56
2021/12/08 06:41:17;;;;;;;11.55;2.30;;;;;;;5.50;84.25;99400.88;7391940;19;20759;-58
2021/12/08 06:43:50;;;;;;;;;;;;;;;5.49;84.19;99406.16;7392034;19;20006;-58
2021/12/08 06:46:19;;;;;;;8.45;1.92;;;;;;;5.47;83.96;99401.03;7389440;19;19911;-58
2021/12/08 06:48:51;;;;;;;12.80;2.67;;;;;;;5.50;83.94;99400.00;7391119;19;20018;-55
2021/12/08 06:51:24;;;;;;;7.07;1.88;;;;;;;5.48;83.75;99417.44;7393904;19;20018;-58
2021/12/08 06:53:56;;;;;;;10.75;2.17;;;;;;;5.48;83.63;99420.88;7391131;19;20015;-58
2021/12/08 06:56:30;;;;;;;11.52;2.47;;;;;;;5.53;84.46;99420.66;7390951;19;20019;-59
2021/12/08 06:59:08;;;;;;;8.68;2.00;;;;;;;5.54;83.79;99418.00;7391932;19;20349;-59
2021/12/08 07:01:47;;;;;;;9.60;2.47;;;;;;;5.51;83.09;99409.50;7389126;19;20011;-59
2021/12/08 07:04:30;;;;;;;13.18;2.45;;;;;;;5.51;83.37;99419.88;7391273;19;20018;-61
2021/12/08 07:07:04;;;;;;;8.90;2.22;;;;;;;5.50;83.37;99419.06;7391075;19;20014;-53
2021/12/08 07:09:39;;;;;;;10.43;2.53;;;;;;;5.47;82.37;99424.41;7389436;19;20360;-54
2021/12/08 07:12:12;;;;;;;11.35;2.40;;;;;;;5.47;82.43;99414.00;7390465;19;20042;-56
2021/12/08 07:14:47;;;;;;;11.10;2.80;;;;;;;5.48;82.87;99415.66;7390808;19;20014;-55
2021/12/08 07:17:21;;;;;;;10.40;2.72;;;;;;;5.47;82.75;99416.59;7391639;19;20018;-58
2021/12/08 07:20:03;;;;;;;9.93;2.45;;;;;;;5.47;82.33;99423.53;7394457;19;20019;-58
2021/12/08 07:22:35;;;;;;;8.85;2.17;;;;;;;5.47;82.61;99429.59;7392028;19;20117;-54
2021/12/08 07:25:06;;;;;;;11.70;2.60;;;;;;;5.48;82.63;99425.22;7390808;19;20014;-56
2021/12/08 07:27:38;;;;;;;11.17;2.93;;;;;;;5.43;82.01;99446.22;7391248;19;20399;-57
2021/12/08 07:30:13;;;;;;;13.57;2.60;;;;;;;5.38;81.37;99443.81;7391654;19;20018;-54
2021/12/08 07:32:44;;;;;;;11.90;2.40;;;;;;;5.40;81.34;99437.72;7390320;19;20014;-59
2021/12/08 07:35:18;;;;;;;9.93;2.80;;;;;;;5.40;81.10;99442.91;7392331;19;20458;-56
2021/12/08 07:37:48;;;;;;;14.18;3.25;;;;;;;5.37;80.26;99454.28;7391580;19;20095;-58
2021/12/08 07:40:21;;;;;;;9.27;2.58;;;;;;;5.34;80.60;99460.47;7390944;19;20159;-53
2021/12/08 07:42:53;;;;;;;11.10;2.95;;;;;;;5.35;80.65;99475.13;7388214;19;20014;-58
2021/12/08 07:45:31;;;;;;;10.10;2.60;;;;;;;5.35;80.68;99469.09;7389326;19;20015;-56
2021/12/08 07:48:02;;;;;;;9.68;2.65;;;;;;;5.38;80.99;99493.16;7389053;19;20101;-58
2021/12/08 07:50:37;;;;;;;12.13;2.80;;;;;;;5.36;80.24;99487.22;7391207;19;20452;-55
2021/12/08 07:53:07;;;;;;;11.73;2.88;;;;;;;5.37;80.57;99488.91;7390479;19;20029;-54
2021/12/08 07:55:40;;;;;;;10.25;2.90;;;;;;;5.37;80.75;99494.09;7390443;19;20082;-58
2021/12/08 07:58:11;;;;;;;10.10;2.70;;;;;;;5.39;81.23;99483.66;7389806;19;20086;-57
2021/12/08 08:00:45;;;;;;;13.15;2.90;;;;;;;5.42;81.51;99493.06;7390995;19;20011;-56
2021/12/08 08:03:17;;;;;;;12.23;3.08;;;;;;;5.40;81.03;99490.50;7391438;19;20360;-59
2021/12/08 08:05:48;;;;;;;9.40;2.87;;;;;;;5.40;81.28;99487.91;7388954;19;20020;-57
2021/12/08 08:08:18;;;;;;;10.80;2.88;;;;;;;5.40;81.50;99487.06;7391562;19;20024;-57
2021/12/08 08:10:52;;;;;;;11.73;2.85;;;;;;;5.38;80.80;99495.78;7390105;19;20015;-59
2021/12/08 08:13:23;;;;;;;8.93;3.22;;;;;;;5.37;81.01;99495.84;7391246;19;20113;-59
2021/12/08 08:16:04;;;;;;;8.85;2.72;;;;;;;5.38;81.15;99489.75;7389820;19;20014;-57
2021/12/08 08:18:34;;;;;;;8.75;3.30;;;;;;;5.40;81.17;99474.91;7391671;19;20021;-57
2021/12/08 08:21:08;;;;;;;12.27;3.40;;;;;;;5.42;81.35;99482.66;7389410;19;20014;-57
2021/12/08 08:23:38;;;;;;;10.52;3.42;;;;;;;5.44;81.23;99486.88;7391307;19;20003;-59
2021/12/08 08:26:10;;;;;;;12.98;3.50;;;;;;;5.42;81.12;99478.31;7387610;19;20029;-54
2021/12/08 08:28:40;;;;;;;10.93;3.37;;;;;;;5.43;80.76;99484.34;7390906;19;20017;-56
2021/12/08 08:31:16;;;;;;;13.23;3.80;;;;;;;5.44;80.62;99484.25;7389645;19;20017;-58
2021/12/08 08:33:46;;;;;;;13.27;4.22;;;;;;;5.47;80.59;99496.28;7390375;19;20019;-62
2021/12/08 08:36:18;;;;;;;13.48;4.90;;;;;;;5.47;80.40;99504.94;7389858;19;20075;-62
2021/12/08 08:38:54;;;;;;;16.02;4.68;;;;;;;5.48;80.98;99497.97;7388554;19;20018;-62
2021/12/08 08:41:28;;;;;;;14.00;4.90;;;;;;;5.50;80.95;99502.19;7389147;19;20044;-62
2021/12/08 08:44:00;;;;;;;13.25;4.45;;;;;;;5.53;81.04;99511.59;7389590;19;20018;-62
2021/12/08 08:46:37;;;;;;;13.48;4.32;;;;;;;5.45;79.53;99522.34;7387519;19;20022;-61
2021/12/08 08:49:10;;;;;;;11.25;3.70;;;;;;;5.41;79.60;99512.97;7389519;19;20027;-63
2021/12/08 08:51:42;;;;;;;13.63;3.75;;;;;;;5.41;79.49;99517.34;7389094;19;20043;-62
2021/12/08 08:54:19;;;;;;;15.60;3.90;;;;;;;5.41;79.71;99519.94;7388615;19;20029;-61
2021/12/08 08:56:55;;;;;;;11.07;4.00;;;;;;;5.39;79.30;99520.00;7388418;19;20357;-64
2021/12/08 08:59:27;;;;;;;14.32;3.60;;;;;;;5.38;78.99;99523.50;7387008;19;20013;-63
2021/12/08 09:02:02;;;;;;;9.65;2.95;;;;;;;5.38;78.20;99523.50;7389668;19;20014;-64
2021/12/08 09:04:33;;;;;;;12.90;3.53;;;;;;;5.37;79.20;99517.47;7386186;19;20034;-62
2021/12/08 09:07:06;;;;;;;11.20;2.72;;;;;;;5.36;78.36;99520.97;7386208;19;20021;-64
2021/12/08 09:09:36;;;;;;;;;;;;;;;5.31;78.02;99517.72;7389348;19;20314;-64
2021/12/08 09:12:09;;;;;;;9.35;2.60;;;;;;;5.32;78.84;99498.66;7386353;19;19919;-64
2021/12/08 09:14:42;;;;;;;9.68;2.83;;;;;;;5.32;78.26;99510.81;7387053;19;20082;-62
2021/12/08 09:17:15;;;;;;;;;;;;;;;5.34;78.06;99516.75;7388270;19;20051;-64
2021/12/08 09:19:49;;;;;;;10.43;2.85;;;;;;;5.33;77.59;99531.50;7387690;19;19953;-61
2021/12/08 09:22:22;;;;;;;13.95;2.72;;;;;;;5.37;77.03;99540.00;7388972;19;20476;-63
2021/12/08 09:25:10;;;;;;;7.72;3.00;;;;;;;5.38;77.41;99541.69;7388819;19;20519;-63
2021/12/08 09:27:42;;;;;;;9.80;3.00;;;;;;;5.43;77.77;99550.16;7395267;19;20018;-65
2021/12/08 09:30:18;;;;;;;9.50;2.92;;;;;;;5.48;76.98;99542.97;7395856;19;20310;-64
2021/12/08 09:32:54;;;;;;;10.13;3.03;;;;;;;5.55;76.75;99535.75;7395868;19;20014;-64
2021/12/08 09:35:27;;;;;;;9.90;2.75;;;;;;;5.59;76.51;99528.66;7393273;19;20134;-64
2021/12/08 09:38:00;;;;;;;9.48;2.63;;;;;;;5.66;76.82;99530.06;7394842;19;20037;-61
2021/12/08 09:40:33;;;;;;;9.68;3.28;;;;;;;5.77;76.21;99534.81;7395287;19;20306;-62
2021/12/08 09:43:06;;;;;;;7.55;3.00;;;;;;;5.79;75.70;99546.81;7394559;19;20019;-63
2021/12/08 09:45:39;;;;;;;10.75;3.40;;;;;;;5.84;75.49;99539.63;7393300;19;20455;-58
2021/12/08 09:48:11;;;;;;;13.60;3.65;;;;;;;5.87;75.39;99541.25;7392003;19;20007;-61
2021/12/08 09:50:41;;;;;;;9.55;3.08;;;;;;;5.89;74.61;99544.66;7392373;19;20053;-62
2021/12/08 09:53:11;;;;;;;12.48;3.13;;;;;;;6.01;75.22;99535.47;7392568;19;20026;-61
2021/12/08 09:55:39;;;;;;;12.27;6.03;;;;;;;6.06;75.36;99536.94;7392114;19;20022;-64
2021/12/08 09:58:10;;;;;;;10.05;3.42;;;;;;;6.13;75.61;99532.31;7393947;19;20015;-60
2021/12/08 10:00:42;;;;;;;9.10;3.40;;;;;;;6.18;75.49;99537.28;7391851;19;20091;-60
2021/12/08 10:03:15;;;;;;;8.05;2.97;;;;;;;6.26;75.55;99548.19;7394350;19;20021;-63
2021/12/08 10:05:45;;;;;;;11.45;3.50;;;;;;;6.35;75.70;99550.34;7391330;19;20006;-59
2021/12/08 10:08:14;;;;;;;8.90;2.97;;;;;;;6.42;73.91;99530.09;7393607;19;20014;-63
2021/12/08 10:10:46;;;;;;;11.13;3.28;;;;;;;6.43;74.13;99542.16;7394014;19;20019;-63
2021/12/08 10:13:17;;;;;;;8.63;3.35;;;;;;;6.43;74.37;99529.16;7393840;19;20324;-63
2021/12/08 10:15:46;;;;;;;9.15;2.65;;;;;;;6.42;73.95;99522.28;7390640;19;20022;-61
2021/12/08 10:18:18;;;;;;;6.40;2.92;;;;;;;6.41;74.00;99523.19;7393616;19;20010;-63
2021/12/08 10:20:49;;;;;;;8.50;2.80;;;;;;;6.38;73.61;99507.72;7394576;19;20013;-60
2021/12/08 10:23:23;;;;;;;7.85;2.80;;;;;;;6.32;73.86;99505.41;7394855;19;20403;-61
2021/12/08 10:25:54;;;;;;;11.35;3.20;;;;;;;6.31;73.97;99490.72;7391021;19;20019;-60
2021/12/08 10:28:28;;;;;;;6.00;2.55;;;;;;;6.28;73.89;99483.91;7394043;19;20017;-59
2021/12/08 10:31:00;;;;;;;7.32;2.75;;;;;;;6.36;74.25;99491.34;7393432;19;20018;-60
2021/12/08 10:34:05;;;;;;;9.90;2.72;;;;;;;6.36;73.52;99481.78;7393625;19;20010;-63
2021/12/08 10:36:47;;;;;;;7.00;2.15;;;;;;;6.41;73.27;99478.97;7389997;19;20015;-63
2021/12/08 10:39:29;;;;;;;8.05;2.53;;;;;;;6.46;73.31;99470.91;7393842;19;20022;-64
2021/12/08 10:42:09;;;;;;;8.75;2.75;;;;;;;6.47;72.76;99477.81;7392603;19;20020;-62
2021/12/08 10:44:46;;;;;;;9.15;2.38;;;;;;;6.46;73.11;99466.56;7391763;19;20440;-59
2021/12/08 10:47:18;;;;;;;10.88;2.55;;;;;;;6.49;72.96;99466.44;7391279;19;20022;-59
2021/12/08 10:55:19;;;;;;;9.68;2.08;;;;;;;6.63;71.61;99476.13;7391540;19;20022;-63
2021/12/08 10:57:50;;;;;;;7.75;2.03;;;;;;;6.65;72.60;99492.53;7392138;19;20104;-65
2021/12/08 11:00:24;;;;;;;7.95;2.60;;;;;;;6.67;72.45;99495.88;7392169;19;20018;-64
2021/12/08 11:02:55;;;;;;;8.35;2.63;;;;;;;6.74;72.88;99509.44;7392995;19;20014;-62
2021/12/08 11:05:52;;;;;;;5.38;2.15;;;;;;;6.81;72.05;99505.63;7390992;19;20126;-63
2021/12/08 11:08:26;;;;;;;9.82;2.28;;;;;;;6.87;71.90;99510.50;7389867;19;20020;-61
2021/12/08 11:10:57;;;;;;;9.10;2.67;;;;;;;6.94;71.82;99505.84;7392402;19;20015;-61
2021/12/08 11:13:29;;;;;;;9.20;2.47;;;;;;;7.00;71.28;99505.53;7391716;19;20015;-61
2021/12/08 11:16:09;;;;;;;6.65;2.05;;;;;;;7.03;71.06;99504.53;7389819;19;20010;-62
2021/12/08 11:18:38;;;;;;;7.82;2.50;;;;;;;7.09;71.55;99522.44;7392226;19;20018;-61
2021/12/08 11:21:18;;;;;;;6.78;2.67;;;;;;;7.12;71.25;99532.75;7391946;19;20018;-62
2021/12/08 11:23:49;;;;;;;8.23;2.75;;;;;;;7.09;69.96;99532.88;7391756;19;20010;-61
2021/12/08 11:26:26;;;;;;;9.82;2.63;;;;;;;6.99;70.93;99548.13;7368409;19;20518;-64
2021/12/08 11:29:00;;;;;;;6.25;2.47;;;;;;;6.93;71.13;99556.25;7393416;19;20046;-62
2021/12/08 11:31:36;;;;;;;11.48;2.83;;;;;;;6.96;71.37;99563.06;7392584;19;20021;-63
2021/12/08 11:34:10;;;;;;;11.27;3.15;;;;;;;6.96;71.74;99569.09;7391721;19;20010;-62
2021/12/08 11:36:44;;;;;;;7.82;2.33;;;;;;;6.94;72.14;99576.16;7391628;19;20015;-63
2021/12/08 11:39:16;;;;;;;6.90;2.50;;;;;;;6.92;71.89;99568.44;7391810;19;20013;-58
2021/12/08 11:41:48;;;;;;;10.37;3.40;;;;;;;6.91;71.82;99574.53;7392067;19;20010;-62
2021/12/08 11:44:19;;;;;;;8.73;2.97;;;;;;;6.88;71.64;99579.06;7389467;19;20057;-61
2021/12/08 11:46:51;;;;;;;7.10;2.90;;;;;;;6.91;71.83;99587.56;7388594;19;20010;-60
2021/12/08 11:49:21;;;;;;;9.32;2.90;;;;;;;6.91;72.38;99587.56;7389998;19;20019;-64
2021/12/08 11:51:56;;;;;;;6.65;2.22;;;;;;;6.94;73.24;99583.97;7391894;19;20025;-60
2021/12/08 11:54:34;;;;;;;11.00;3.13;;;;;;;6.89;71.39;99583.34;7391487;19;20010;-62
2021/12/08 11:57:11;;;;;;;8.13;2.78;;;;;;;6.88;71.79;99587.72;7388830;19;20100;-59
2021/12/08 11:59:48;;;;;;;6.95;2.63;;;;;;;6.90;72.43;99593.69;7390630;19;20035;-64
2021/12/08 12:02:20;;;;;;;5.80;2.70;;;;;;;6.84;71.44;99595.75;7390948;19;20386;-58
2021/12/08 12:04:49;;;;;;;6.07;2.40;;;;;;;6.82;71.57;99601.03;7392524;19;20019;-60
2021/12/08 12:07:20;;;;;;;9.00;2.78;;;;;;;6.78;71.67;99612.53;7391132;19;20013;-61
2021/12/08 12:09:50;;;;;;;9.43;2.70;;;;;;;6.77;71.93;99613.44;7391817;19;20007;-60
2021/12/08 12:12:20;;;;;;;11.63;3.13;;;;;;;6.68;71.69;99614.72;7389472;19;20030;-57
2021/12/08 12:14:49;;;;;;;7.35;3.03;;;;;;;6.64;71.92;99615.78;7390347;19;20367;-61
2021/12/08 12:17:18;;;;;;;9.02;3.50;;;;;;;6.65;72.04;99624.41;7391347;19;20041;-63
2021/12/08 12:19:54;;;;;;;6.80;3.40;;;;;;;6.66;72.94;99621.78;7390681;19;20309;-63
2021/12/08 12:22:44;;;;;;;10.35;3.40;;;;;;;6.72;73.50;99623.22;7392004;19;20021;-61
2021/12/08 12:25:45;;;;;;;10.18;3.20;;;;;;;6.68;72.76;99619.94;7390809;19;20015;-62
2021/12/08 12:28:34;;;;;;;9.80;2.97;;;;;;;6.73;73.29;99624.91;7387508;19;20011;-57
2021/12/08 12:31:17;;;;;;;7.65;3.03;;;;;;;6.76;73.81;99624.75;7390638;19;20014;-60
2021/12/08 12:33:47;;;;;;;7.22;3.13;;;;;;;6.79;73.91;99626.38;7388123;19;20010;-64
2021/12/08 12:36:24;;;;;;;6.85;2.88;;;;;;;6.81;73.38;99638.41;7387854;19;20015;-61